sensor_id;sensor_type;location;lat;lon;timestamp;pressure;altitude;pressure_sealevel;temperature;humidity
44079;BME280;29744;49.078;12.878;2023-04-08T00:03:48;96375.63;;;15.06;34.41
44079;BME280;29744;49.078;12.878;2023-04-08T00:08:48;96377.06;;;15.04;34.24
44079;BME280;29744;49.078;12.878;2023-04-08T00:13:51;96380.09;;;15.02;34.35
44079;BME280;29744;49.078;12.878;2023-04-08T00:18:51;96376.91;;;15.00;34.57
44079;BME280;29744;49.078;12.878;2023-04-08T00:23:52;96381.84;;;14.98;34.49
44079;BME280;29744;49.078;12.878;2023-04-08T00:28:52;96379.78;;;14.95;34.51
44079;BME280;29744;49.078;12.878;2023-04-08T00:33:52;96379.31;;;14.93;34.52
44079;BME280;29744;49.078;12.878;2023-04-08T00:38:53;96369.97;;;14.91;34.66
44079;BME280;29744;49.078;12.878;2023-04-08T00:43:53;96379.97;;;14.90;34.45
44079;BME280;29744;49.078;12.878;2023-04-08T00:48:53;96381.44;;;14.88;34.13
44079;BME280;29744;49.078;12.878;2023-04-08T00:53:54;96386.38;;;14.86;34.59
44079;BME280;29744;49.078;12.878;2023-04-08T00:58:54;96381.28;;;14.84;34.42
44079;BME280;29744;49.078;12.878;2023-04-08T01:04:18;96372.25;;;14.80;34.19
44079;BME280;29744;49.078;12.878;2023-04-08T01:09:22;96382.25;;;14.79;34.44
44079;BME280;29744;49.078;12.878;2023-04-08T01:14:25;96383.38;;;14.78;34.22
44079;BME280;29744;49.078;12.878;2023-04-08T01:19:32;96381.00;;;14.77;34.23
44079;BME280;29744;49.078;12.878;2023-04-08T01:24:35;96374.34;;;14.74;34.30
44079;BME280;29744;49.078;12.878;2023-04-08T01:29:38;96378.16;;;14.73;34.57
44079;BME280;29744;49.078;12.878;2023-04-08T01:34:40;96373.88;;;14.72;34.52
44079;BME280;29744;49.078;12.878;2023-04-08T01:39:40;96372.63;;;14.70;34.50
44079;BME280;29744;49.078;12.878;2023-04-08T01:44:41;96369.47;;;14.68;34.46
44079;BME280;29744;49.078;12.878;2023-04-08T01:49:43;96365.97;;;14.67;34.77
44079;BME280;29744;49.078;12.878;2023-04-08T01:54:43;96364.72;;;14.65;34.69
44079;BME280;29744;49.078;12.878;2023-04-08T02:04:46;96365.03;;;14.63;34.70
44079;BME280;29744;49.078;12.878;2023-04-08T02:09:47;96367.59;;;14.60;34.45
44079;BME280;29744;49.078;12.878;2023-04-08T02:14:47;96368.72;;;14.59;34.82
44079;BME280;29744;49.078;12.878;2023-04-08T02:20:07;96375.22;;;14.58;34.69
44079;BME280;29744;49.078;12.878;2023-04-08T02:25:14;96368.56;;;14.55;34.73
44079;BME280;29744;49.078;12.878;2023-04-08T02:30:16;96373.50;;;14.53;34.57
44079;BME280;29744;49.078;12.878;2023-04-08T02:35:17;96368.13;;;14.53;34.84
44079;BME280;29744;49.078;12.878;2023-04-08T02:40:25;96373.03;;;14.51;34.76
44079;BME280;29744;49.078;12.878;2023-04-08T02:45:34;96374.16;;;14.50;35.02
44079;BME280;29744;49.078;12.878;2023-04-08T02:50:37;96369.09;;;14.48;34.97
44079;BME280;29744;49.078;12.878;2023-04-08T02:55:37;96360.19;;;14.48;34.75
44079;BME280;29744;49.078;12.878;2023-04-08T03:00:38;96372.09;;;14.47;34.69
44079;BME280;29744;49.078;12.878;2023-04-08T03:05:38;96366.25;;;14.45;34.59
44079;BME280;29744;49.078;12.878;2023-04-08T03:10:39;96367.34;;;14.44;35.01
44079;BME280;29744;49.078;12.878;2023-04-08T03:15:40;96375.47;;;14.44;34.88
44079;BME280;29744;49.078;12.878;2023-04-08T03:20:40;96375.00;;;14.42;34.94
44079;BME280;29744;49.078;12.878;2023-04-08T03:25:40;96378.00;;;14.40;34.76
44079;BME280;29744;49.078;12.878;2023-04-08T03:30:41;96387.22;;;14.39;34.87
44079;BME280;29744;49.078;12.878;2023-04-08T03:35:41;96372.94;;;14.39;34.82
44079;BME280;29744;49.078;12.878;2023-04-08T03:40:41;96382.94;;;14.38;34.97
44079;BME280;29744;49.078;12.878;2023-04-08T03:45:41;96381.03;;;14.39;34.63
44079;BME280;29744;49.078;12.878;2023-04-08T03:50:42;96388.47;;;14.42;34.72
44079;BME280;29744;49.078;12.878;2023-04-08T03:55:42;96394.03;;;14.45;35.08
44079;BME280;29744;49.078;12.878;2023-04-08T04:00:42;96397.47;;;14.55;35.04
44079;BME280;29744;49.078;12.878;2023-04-08T04:05:42;96403.63;;;14.64;34.64
44079;BME280;29744;49.078;12.878;2023-04-08T04:10:43;96395.47;;;14.72;34.63
44079;BME280;29744;49.078;12.878;2023-04-08T04:15:43;96403.69;;;14.85;35.06
44079;BME280;29744;49.078;12.878;2023-04-08T04:20:44;96415.03;;;14.99;34.75
44079;BME280;29744;49.078;12.878;2023-04-08T04:25:44;96413.56;;;15.10;34.88
44079;BME280;29744;49.078;12.878;2023-04-08T04:30:44;96421.88;;;15.26;34.45
44079;BME280;29744;49.078;12.878;2023-04-08T04:35:45;96427.03;;;15.39;34.50
44079;BME280;29744;49.078;12.878;2023-04-08T04:40:45;96433.75;;;15.54;34.33
44079;BME280;29744;49.078;12.878;2023-04-08T04:45:45;96436.97;;;15.68;34.16
44079;BME280;29744;49.078;12.878;2023-04-08T04:50:56;96440.56;;;15.81;33.84
44079;BME280;29744;49.078;12.878;2023-04-08T04:55:57;96451.44;;;15.93;34.16
44079;BME280;29744;49.078;12.878;2023-04-08T05:00:57;96455.63;;;16.03;33.95
44079;BME280;29744;49.078;12.878;2023-04-08T05:05:58;96448.56;;;16.10;33.96
44079;BME280;29744;49.078;12.878;2023-04-08T05:10:58;96451.84;;;16.16;33.65
44079;BME280;29744;49.078;12.878;2023-04-08T05:16:01;96457.84;;;16.22;34.00
44079;BME280;29744;49.078;12.878;2023-04-08T05:21:02;96462.25;;;16.26;33.33
44079;BME280;29744;49.078;12.878;2023-04-08T05:26:02;96468.91;;;16.29;33.55
44079;BME280;29744;49.078;12.878;2023-04-08T05:31:05;96473.66;;;16.32;33.57
44079;BME280;29744;49.078;12.878;2023-04-08T05:36:06;96480.31;;;16.34;33.75
44079;BME280;29744;49.078;12.878;2023-04-08T05:41:06;96482.25;;;16.34;33.78
44079;BME280;29744;49.078;12.878;2023-04-08T05:46:07;96486.06;;;16.33;33.77
44079;BME280;29744;49.078;12.878;2023-04-08T05:51:12;96499.59;;;16.33;33.82
44079;BME280;29744;49.078;12.878;2023-04-08T05:56:14;96489.91;;;16.32;33.43
44079;BME280;29744;49.078;12.878;2023-04-08T06:01:14;96500.28;;;16.30;33.53
44079;BME280;29744;49.078;12.878;2023-04-08T06:06:14;96495.53;;;16.27;33.53
44079;BME280;29744;49.078;12.878;2023-04-08T06:11:15;96502.38;;;16.24;33.18
44079;BME280;29744;49.078;12.878;2023-04-08T06:16:16;96508.13;;;16.23;33.31
44079;BME280;29744;49.078;12.878;2023-04-08T06:21:16;96504.97;;;16.21;33.28
44079;BME280;29744;49.078;12.878;2023-04-08T06:26:16;96502.94;;;16.18;33.47
44079;BME280;29744;49.078;12.878;2023-04-08T06:31:17;96521.41;;;16.16;33.59
44079;BME280;29744;49.078;12.878;2023-04-08T06:36:17;96524.44;;;16.14;33.44
44079;BME280;29744;49.078;12.878;2023-04-08T06:41:17;96523.19;;;16.12;33.65
44079;BME280;29744;49.078;12.878;2023-04-08T06:46:17;96537.06;;;16.10;33.68
44079;BME280;29744;49.078;12.878;2023-04-08T06:51:18;96532.75;;;16.09;33.36
44079;BME280;29744;49.078;12.878;2023-04-08T06:56:18;96537.06;;;16.10;33.39
44079;BME280;29744;49.078;12.878;2023-04-08T07:01:20;96537.84;;;16.10;33.54
44079;BME280;29744;49.078;12.878;2023-04-08T07:06:20;96541.81;;;16.13;33.29
44079;BME280;29744;49.078;12.878;2023-04-08T07:11:20;96537.31;;;16.17;33.52
44079;BME280;29744;49.078;12.878;2023-04-08T07:16:21;96552.09;;;16.20;33.59
44079;BME280;29744;49.078;12.878;2023-04-08T07:21:21;96550.31;;;16.24;33.27
44079;BME280;29744;49.078;12.878;2023-04-08T07:26:21;96548.84;;;16.26;33.28
44079;BME280;29744;49.078;12.878;2023-04-08T07:31:22;96564.44;;;16.29;33.38
44079;BME280;29744;49.078;12.878;2023-04-08T07:36:22;96554.06;;;16.31;33.39
44079;BME280;29744;49.078;12.878;2023-04-08T07:41:22;96559.13;;;16.33;33.75
44079;BME280;29744;49.078;12.878;2023-04-08T07:46:23;96566.13;;;16.34;33.36
44079;BME280;29744;49.078;12.878;2023-04-08T07:51:23;96559.13;;;16.33;33.20
44079;BME280;29744;49.078;12.878;2023-04-08T07:56:23;96575.38;;;16.33;33.69
44079;BME280;29744;49.078;12.878;2023-04-08T08:01:24;96575.38;;;16.33;33.33
44079;BME280;29744;49.078;12.878;2023-04-08T08:06:24;96575.25;;;16.29;33.67
44079;BME280;29744;49.078;12.878;2023-04-08T08:11:25;96575.25;;;16.29;33.51
44079;BME280;29744;49.078;12.878;2023-04-08T08:16:29;96569.38;;;16.27;33.54
44079;BME280;29744;49.078;12.878;2023-04-08T08:21:29;96585.63;;;16.27;33.36
44079;BME280;29744;49.078;12.878;2023-04-08T08:26:30;96589.44;;;16.26;33.40
44079;BME280;29744;49.078;12.878;2023-04-08T08:31:30;96583.09;;;16.22;33.48
44079;BME280;29744;49.078;12.878;2023-04-08T08:36:31;96588.06;;;16.20;33.15
44079;BME280;29744;49.078;12.878;2023-04-08T08:41:34;96586.81;;;16.18;33.27
44079;BME280;29744;49.078;12.878;2023-04-08T08:46:43;96597.50;;;16.14;33.73
44079;BME280;29744;49.078;12.878;2023-04-08T08:51:47;96593.88;;;16.10;33.67
44079;BME280;29744;49.078;12.878;2023-04-08T08:56:48;96614.25;;;16.07;33.68
44079;BME280;29744;49.078;12.878;2023-04-08T09:01:48;96617.63;;;16.04;33.38
44079;BME280;29744;49.078;12.878;2023-04-08T09:06:50;96619.41;;;16.00;33.67
44079;BME280;29744;49.078;12.878;2023-04-08T09:12:07;96616.88;;;15.95;33.36
44079;BME280;29744;49.078;12.878;2023-04-08T09:17:08;96618.31;;;15.93;33.64
44079;BME280;29744;49.078;12.878;2023-04-08T09:22:10;96625.50;;;15.89;33.44
44079;BME280;29744;49.078;12.878;2023-04-08T09:27:11;96627.75;;;15.87;33.76
44079;BME280;29744;49.078;12.878;2023-04-08T09:32:12;96628.09;;;15.85;33.58
44079;BME280;29744;49.078;12.878;2023-04-08T09:37:13;96633.03;;;15.83;33.24
44079;BME280;29744;49.078;12.878;2023-04-08T09:42:13;96632.56;;;15.81;33.34
44079;BME280;29744;49.078;12.878;2023-04-08T09:47:22;96631.59;;;15.77;33.46
44079;BME280;29744;49.078;12.878;2023-04-08T09:52:32;96640.81;;;15.76;33.68
44079;BME280;29744;49.078;12.878;2023-04-08T09:57:40;96643.38;;;15.72;33.41
44079;BME280;29744;49.078;12.878;2023-04-08T10:08:26;96648.19;;;15.67;33.21
44079;BME280;29744;49.078;12.878;2023-04-08T10:13:27;96651.22;;;15.65;33.81
44079;BME280;29744;49.078;12.878;2023-04-08T10:18:31;96646.13;;;15.64;33.41
44079;BME280;29744;49.078;12.878;2023-04-08T10:23:52;96655.22;;;15.59;33.71
44079;BME280;29744;49.078;12.878;2023-04-08T10:28:53;96656.00;;;15.60;33.82
44079;BME280;29744;49.078;12.878;2023-04-08T10:33:53;96653.97;;;15.57;33.50
44079;BME280;29744;49.078;12.878;2023-04-08T10:38:53;96660.47;;;15.56;33.46
44079;BME280;29744;49.078;12.878;2023-04-08T10:43:53;96664.63;;;15.53;33.82
44079;BME280;29744;49.078;12.878;2023-04-08T10:49:00;96674.97;;;15.51;33.88
44079;BME280;29744;49.078;12.878;2023-04-08T10:54:12;96672.44;;;15.46;33.73
44079;BME280;29744;49.078;12.878;2023-04-08T10:59:14;96672.44;;;15.46;33.23
44079;BME280;29744;49.078;12.878;2023-04-08T11:04:17;96665.44;;;15.45;33.42
44079;BME280;29744;49.078;12.878;2023-04-08T11:09:22;96663.88;;;15.44;33.11
44079;BME280;29744;49.078;12.878;2023-04-08T11:14:22;96667.38;;;15.44;32.97
44079;BME280;29744;49.078;12.878;2023-04-08T11:19:24;96668.16;;;15.45;33.00
44079;BME280;29744;49.078;12.878;2023-04-08T11:24:24;96683.59;;;15.44;32.82
44079;BME280;29744;49.078;12.878;2023-04-08T11:29:24;96687.88;;;15.45;33.43
44079;BME280;29744;49.078;12.878;2023-04-08T11:34:25;96685.97;;;15.46;32.91
44079;BME280;29744;49.078;12.878;2023-04-08T11:39:25;96689.78;;;15.45;32.79
44079;BME280;29744;49.078;12.878;2023-04-08T11:44:30;96689.63;;;15.41;32.65
44079;BME280;29744;49.078;12.878;2023-04-08T11:49:43;96686.00;;;15.37;32.96
44079;BME280;29744;49.078;12.878;2023-04-08T11:54:44;96690.28;;;15.38;32.63
44079;BME280;29744;49.078;12.878;2023-04-08T11:59:44;96687.91;;;15.37;33.23
44079;BME280;29744;49.078;12.878;2023-04-08T12:04:44;96694.09;;;15.37;33.05
44079;BME280;29744;49.078;12.878;2023-04-08T12:09:45;96695.22;;;15.36;32.81
44079;BME280;29744;49.078;12.878;2023-04-08T12:14:45;96697.13;;;15.36;33.37
44079;BME280;29744;49.078;12.878;2023-04-08T12:19:45;96702.53;;;15.36;32.88
44079;BME280;29744;49.078;12.878;2023-04-08T12:24:46;96704.44;;;15.35;33.06
44079;BME280;29744;49.078;12.878;2023-04-08T12:29:46;96704.44;;;15.35;33.04
44079;BME280;29744;49.078;12.878;2023-04-08T12:34:48;96707.13;;;15.35;33.59
44079;BME280;29744;49.078;12.878;2023-04-08T12:39:48;96711.28;;;15.33;33.21
44079;BME280;29744;49.078;12.878;2023-04-08T12:44:48;96715.09;;;15.32;33.38
44079;BME280;29744;49.078;12.878;2023-04-08T12:49:49;96713.03;;;15.29;32.95
44079;BME280;29744;49.078;12.878;2023-04-08T12:54:49;96715.59;;;15.25;33.22
44079;BME280;29744;49.078;12.878;2023-04-08T12:59:49;96718.59;;;15.24;33.19
44079;BME280;29744;49.078;12.878;2023-04-08T13:04:50;96721.63;;;15.22;33.40
44079;BME280;29744;49.078;12.878;2023-04-08T13:09:52;96728.16;;;15.21;33.08
44079;BME280;29744;49.078;12.878;2023-04-08T13:14:52;96723.84;;;15.20;33.32
44079;BME280;29744;49.078;12.878;2023-04-08T13:19:52;96728.94;;;15.22;33.07
44079;BME280;29744;49.078;12.878;2023-04-08T13:24:53;96722.41;;;15.23;33.26
44079;BME280;29744;49.078;12.878;2023-04-08T13:29:53;96725.28;;;15.26;33.08
44079;BME280;29744;49.078;12.878;2023-04-08T13:34:53;96727.81;;;15.31;33.35
44079;BME280;29744;49.078;12.878;2023-04-08T13:39:53;96729.56;;;15.36;33.14
44079;BME280;29744;49.078;12.878;2023-04-08T13:44:54;96730.50;;;15.40;32.89
44079;BME280;29744;49.078;12.878;2023-04-08T13:49:54;96730.31;;;15.45;33.07
44079;BME280;29744;49.078;12.878;2023-04-08T13:54:54;96725.84;;;15.49;33.29
44079;BME280;29744;49.078;12.878;2023-04-08T13:59:55;96731.88;;;15.55;33.07
44079;BME280;29744;49.078;12.878;2023-04-08T14:04:55;96722.34;;;15.57;33.06
44079;BME280;29744;49.078;12.878;2023-04-08T14:09:56;96732.97;;;15.62;33.10
44079;BME280;29744;49.078;12.878;2023-04-08T14:14:56;96729.63;;;15.65;33.13
44079;BME280;29744;49.078;12.878;2023-04-08T14:19:57;96734.72;;;15.67;33.25
44079;BME280;29744;49.078;12.878;2023-04-08T14:24:58;96730.09;;;15.67;32.86
44079;BME280;29744;49.078;12.878;2023-04-08T14:29:58;96732.47;;;15.69;32.67
44079;BME280;29744;49.078;12.878;2023-04-08T14:34:59;96738.34;;;15.71;32.97
44079;BME280;29744;49.078;12.878;2023-04-08T14:39:59;96751.53;;;15.72;33.05
44079;BME280;29744;49.078;12.878;2023-04-08T14:45:00;96750.75;;;15.72;32.89
44079;BME280;29744;49.078;12.878;2023-04-08T14:50:00;96755.03;;;15.73;32.66
44079;BME280;29744;49.078;12.878;2023-04-08T14:55:01;96759.50;;;15.69;32.44
44079;BME280;29744;49.078;12.878;2023-04-08T15:00:02;96752.50;;;15.68;32.81
44079;BME280;29744;49.078;12.878;2023-04-08T15:05:02;96756.66;;;15.65;32.60
44079;BME280;29744;49.078;12.878;2023-04-08T15:10:03;96763.19;;;15.64;32.96
44079;BME280;29744;49.078;12.878;2023-04-08T15:15:03;96769.38;;;15.65;33.07
44079;BME280;29744;49.078;12.878;2023-04-08T15:20:04;96774.00;;;15.64;32.47
44079;BME280;29744;49.078;12.878;2023-04-08T15:25:05;96767.00;;;15.63;32.74
44079;BME280;29744;49.078;12.878;2023-04-08T15:30:06;96775.44;;;15.62;32.68
44079;BME280;29744;49.078;12.878;2023-04-08T15:35:07;96780.03;;;15.61;32.46
44079;BME280;29744;49.078;12.878;2023-04-08T15:40:08;96780.38;;;15.60;32.67
44079;BME280;29744;49.078;12.878;2023-04-08T15:45:08;96777.66;;;15.60;32.87
44079;BME280;29744;49.078;12.878;2023-04-08T15:50:09;96778.13;;;15.62;32.90
44079;BME280;29744;49.078;12.878;2023-04-08T15:55:10;96782.44;;;15.63;32.84
44079;BME280;29744;49.078;12.878;2023-04-08T16:00:11;96785.59;;;15.65;32.79
44079;BME280;29744;49.078;12.878;2023-04-08T16:05:11;96790.22;;;15.64;33.12
44079;BME280;29744;49.078;12.878;2023-04-08T16:10:12;96798.81;;;15.66;33.02
44079;BME280;29744;49.078;12.878;2023-04-08T16:15:12;96794.97;;;15.67;32.97
44079;BME280;29744;49.078;12.878;2023-04-08T16:20:13;96795.78;;;15.68;32.70
44079;BME280;29744;49.078;12.878;2023-04-08T16:25:13;96800.84;;;15.69;33.05
44079;BME280;29744;49.078;12.878;2023-04-08T16:30:14;96807.06;;;15.70;32.72
44079;BME280;29744;49.078;12.878;2023-04-08T16:35:14;96816.28;;;15.69;32.97
44079;BME280;29744;49.078;12.878;2023-04-08T16:40:16;96808.19;;;15.69;33.14
44079;BME280;29744;49.078;12.878;2023-04-08T16:45:16;96813.59;;;15.69;32.92
44079;BME280;29744;49.078;12.878;2023-04-08T16:50:16;96816.59;;;15.67;32.89
44079;BME280;29744;49.078;12.878;2023-04-08T16:55:17;96826.63;;;15.67;32.88
44079;BME280;29744;49.078;12.878;2023-04-08T17:00:18;96836.97;;;15.65;33.31
44079;BME280;29744;49.078;12.878;2023-04-08T17:05:20;96839.19;;;15.63;33.06
44079;BME280;29744;49.078;12.878;2023-04-08T17:10:23;96839.53;;;15.61;33.27
44079;BME280;29744;49.078;12.878;2023-04-08T17:15:24;96840.97;;;15.59;33.02
44079;BME280;29744;49.078;12.878;2023-04-08T17:20:24;96854.00;;;15.57;33.41
44079;BME280;29744;49.078;12.878;2023-04-08T17:25:25;96857.81;;;15.56;33.37
44079;BME280;29744;49.078;12.878;2023-04-08T17:30:25;96857.66;;;15.52;33.24
44079;BME280;29744;49.078;12.878;2023-04-08T17:35:26;96866.88;;;15.51;33.02
44079;BME280;29744;49.078;12.878;2023-04-08T17:40:26;96873.72;;;15.49;33.56
44079;BME280;29744;49.078;12.878;2023-04-08T17:45:26;96876.75;;;15.47;33.62
44079;BME280;29744;49.078;12.878;2023-04-08T17:50:27;96885.16;;;15.45;33.40
44079;BME280;29744;49.078;12.878;2023-04-08T17:55:27;96892.47;;;15.45;33.14
44079;BME280;29744;49.078;12.878;2023-04-08T18:00:27;96895.03;;;15.41;33.75
44079;BME280;29744;49.078;12.878;2023-04-08T18:05:28;96902.66;;;15.39;33.59
44079;BME280;29744;49.078;12.878;2023-04-08T18:10:29;96902.97;;;15.38;33.64
44079;BME280;29744;49.078;12.878;2023-04-08T18:15:29;96906.78;;;15.37;33.52
44079;BME280;29744;49.078;12.878;2023-04-08T18:20:29;96924.44;;;15.34;33.73
44079;BME280;29744;49.078;12.878;2023-04-08T18:25:33;96930.94;;;15.33;34.06
44079;BME280;29744;49.078;12.878;2023-04-08T18:30:33;96936.34;;;15.33;34.05
44079;BME280;29744;49.078;12.878;2023-04-08T18:35:33;96945.56;;;15.32;34.01
44079;BME280;29744;49.078;12.878;2023-04-08T18:40:34;96952.09;;;15.31;34.06
44079;BME280;29744;49.078;12.878;2023-04-08T18:45:34;96957.00;;;15.29;34.00
44079;BME280;29744;49.078;12.878;2023-04-08T18:50:35;96962.72;;;15.28;34.10
44079;BME280;29744;49.078;12.878;2023-04-08T18:55:36;96964.47;;;15.24;34.02
44079;BME280;29744;49.078;12.878;2023-04-08T19:00:37;96977.50;;;15.22;34.30
44079;BME280;29744;49.078;12.878;2023-04-08T19:05:41;96974.31;;;15.20;34.06
44079;BME280;29744;49.078;12.878;2023-04-08T19:10:41;96981.16;;;15.17;33.92
44079;BME280;29744;49.078;12.878;2023-04-08T19:15:41;96982.56;;;15.14;34.09
44079;BME280;29744;49.078;12.878;2023-04-08T19:20:42;96981.28;;;15.12;34.34
44079;BME280;29744;49.078;12.878;2023-04-08T19:25:42;96983.50;;;15.10;34.15
44079;BME280;29744;49.078;12.878;2023-04-08T19:30:43;96988.13;;;15.09;34.42
44079;BME280;29744;49.078;12.878;2023-04-08T19:35:43;96990.50;;;15.11;34.22
44079;BME280;29744;49.078;12.878;2023-04-08T19:40:43;96996.41;;;15.13;34.23
44079;BME280;29744;49.078;12.878;2023-04-08T19:45:43;97011.97;;;15.16;34.39
44079;BME280;29744;49.078;12.878;2023-04-08T19:50:44;96995.13;;;15.19;34.14
44079;BME280;29744;49.078;12.878;2023-04-08T19:55:45;96996.09;;;15.23;33.85
44079;BME280;29744;49.078;12.878;2023-04-08T20:00:45;97008.66;;;15.28;34.15
44079;BME280;29744;49.078;12.878;2023-04-08T20:05:45;97002.00;;;15.34;33.82
44079;BME280;29744;49.078;12.878;2023-04-08T20:10:46;97019.19;;;15.38;34.26
44079;BME280;29744;49.078;12.878;2023-04-08T20:15:48;97020.16;;;15.42;34.09
44079;BME280;29744;49.078;12.878;2023-04-08T20:20:48;97018.72;;;15.44;34.04
44079;BME280;29744;49.078;12.878;2023-04-08T20:25:48;97022.38;;;15.49;34.18
44079;BME280;29744;49.078;12.878;2023-04-08T20:30:50;97024.78;;;15.50;34.01
44079;BME280;29744;49.078;12.878;2023-04-08T20:35:51;97022.88;;;15.51;33.83
44079;BME280;29744;49.078;12.878;2023-04-08T20:40:52;97027.16;;;15.52;34.00
44079;BME280;29744;49.078;12.878;2023-04-08T20:45:52;97027.16;;;15.52;33.63
44079;BME280;29744;49.078;12.878;2023-04-08T20:50:53;97031.78;;;15.51;34.10
44079;BME280;29744;49.078;12.878;2023-04-08T20:55:54;97023.66;;;15.51;33.73
44079;BME280;29744;49.078;12.878;2023-04-08T21:00:56;97025.56;;;15.51;34.17
44079;BME280;29744;49.078;12.878;2023-04-08T21:05:56;97029.38;;;15.50;34.08
44079;BME280;29744;49.078;12.878;2023-04-08T21:10:57;97031.59;;;15.48;33.89
44079;BME280;29744;49.078;12.878;2023-04-08T21:15:57;97038.13;;;15.46;33.76
44079;BME280;29744;49.078;12.878;2023-04-08T21:20:58;97034.94;;;15.44;34.08
44079;BME280;29744;49.078;12.878;2023-04-08T21:25:58;97036.06;;;15.43;33.88
44079;BME280;29744;49.078;12.878;2023-04-08T21:31:12;97036.69;;;15.40;33.64
44079;BME280;29744;49.078;12.878;2023-04-08T21:36:12;97037.78;;;15.39;33.88
44079;BME280;29744;49.078;12.878;2023-04-08T21:41:12;97040.81;;;15.38;34.01
44079;BME280;29744;49.078;12.878;2023-04-08T21:46:13;97043.03;;;15.36;33.63
44079;BME280;29744;49.078;12.878;2023-04-08T21:51:14;97036.81;;;15.35;33.78
44079;BME280;29744;49.078;12.878;2023-04-08T21:56:15;97037.44;;;15.32;33.86
44079;BME280;29744;49.078;12.878;2023-04-08T22:01:16;97037.78;;;15.31;33.93
44079;BME280;29744;49.078;12.878;2023-04-08T22:06:16;97041.91;;;15.28;33.77
44079;BME280;29744;49.078;12.878;2023-04-08T22:11:16;97029.81;;;15.26;33.81
44079;BME280;29744;49.078;12.878;2023-04-08T22:16:17;97018.50;;;15.24;34.28
44079;BME280;29744;49.078;12.878;2023-04-08T22:21:17;97009.94;;;15.22;34.10
44079;BME280;29744;49.078;12.878;2023-04-08T22:26:17;97021.84;;;15.21;33.98
44079;BME280;29744;49.078;12.878;2023-04-08T22:31:18;97032.97;;;15.19;33.78
44079;BME280;29744;49.078;12.878;2023-04-08T22:36:18;97027.38;;;15.16;33.75
44079;BME280;29744;49.078;12.878;2023-04-08T22:41:19;97040.41;;;15.13;34.03
44079;BME280;29744;49.078;12.878;2023-04-08T22:46:20;97033.72;;;15.11;34.37
44079;BME280;29744;49.078;12.878;2023-04-08T22:51:20;97031.34;;;15.09;33.86
44079;BME280;29744;49.078;12.878;2023-04-08T22:56:21;97040.88;;;15.07;34.19
44079;BME280;29744;49.078;12.878;2023-04-08T23:01:22;97033.06;;;15.05;34.47
44079;BME280;29744;49.078;12.878;2023-04-08T23:06:22;97042.59;;;15.03;34.29
44079;BME280;29744;49.078;12.878;2023-04-08T23:11:23;97040.50;;;15.00;33.92
44079;BME280;29744;49.078;12.878;2023-04-08T23:16:23;97034.59;;;14.98;33.88
44079;BME280;29744;49.078;12.878;2023-04-08T23:21:23;97039.53;;;14.96;34.21
44079;BME280;29744;49.078;12.878;2023-04-08T23:26:25;97028.22;;;14.94;34.55
44079;BME280;29744;49.078;12.878;2023-04-08T23:31:25;97020.75;;;14.91;34.54
44079;BME280;29744;49.078;12.878;2023-04-08T23:36:25;97019.97;;;14.90;34.40
44079;BME280;29744;49.078;12.878;2023-04-08T23:41:26;97031.38;;;14.87;34.05
44079;BME280;29744;49.078;12.878;2023-04-08T23:46:26;97033.59;;;14.85;34.41
44079;BME280;29744;49.078;12.878;2023-04-08T23:51:27;97037.41;;;14.84;34.60
44079;BME280;29744;49.078;12.878;2023-04-08T23:56:27;97030.72;;;14.81;34.31
